sensor_id;sensor_type;location;lat;lon;timestamp;P1;durP1;ratioP1;P2;durP2;ratioP2
4462;SDS011;2244;50.200;8.220;2024-02-16T00:00:03;26.20;;;3.40;;
4462;SDS011;2244;50.200;8.220;2024-02-16T00:02:31;25.20;;;3.43;;
4462;SDS011;2244;50.200;8.220;2024-02-16T00:05:02;25.73;;;2.80;;
4462;SDS011;2244;50.200;8.220;2024-02-16T00:07:31;25.23;;;3.10;;
4462;SDS011;2244;50.200;8.220;2024-02-16T00:09:59;24.73;;;3.27;;
4462;SDS011;2244;50.200;8.220;2024-02-16T00:12:27;25.70;;;3.40;;
4462;SDS011;2244;50.200;8.220;2024-02-16T00:14:54;23.90;;;3.20;;
4462;SDS011;2244;50.200;8.220;2024-02-16T00:17:22;26.90;;;3.83;;
4462;SDS011;2244;50.200;8.220;2024-02-16T00:19:51;26.73;;;3.17;;
4462;SDS011;2244;50.200;8.220;2024-02-16T00:22:18;25.93;;;3.10;;
4462;SDS011;2244;50.200;8.220;2024-02-16T00:24:45;24.50;;;3.30;;
4462;SDS011;2244;50.200;8.220;2024-02-16T00:27:14;27.47;;;4.50;;
4462;SDS011;2244;50.200;8.220;2024-02-16T00:29:41;24.97;;;2.90;;
4462;SDS011;2244;50.200;8.220;2024-02-16T00:32:10;27.00;;;3.30;;
4462;SDS011;2244;50.200;8.220;2024-02-16T00:34:37;25.43;;;3.20;;
4462;SDS011;2244;50.200;8.220;2024-02-16T00:37:06;24.50;;;3.00;;
4462;SDS011;2244;50.200;8.220;2024-02-16T00:39:40;24.67;;;3.57;;
4462;SDS011;2244;50.200;8.220;2024-02-16T00:42:08;28.17;;;3.47;;
4462;SDS011;2244;50.200;8.220;2024-02-16T00:44:36;26.30;;;3.70;;
4462;SDS011;2244;50.200;8.220;2024-02-16T00:47:03;23.57;;;3.00;;
4462;SDS011;2244;50.200;8.220;2024-02-16T00:49:33;23.57;;;2.93;;
4462;SDS011;2244;50.200;8.220;2024-02-16T00:52:01;23.30;;;3.30;;
4462;SDS011;2244;50.200;8.220;2024-02-16T00:54:28;23.60;;;3.07;;
4462;SDS011;2244;50.200;8.220;2024-02-16T00:56:56;24.70;;;3.00;;
4462;SDS011;2244;50.200;8.220;2024-02-16T00:59:25;23.40;;;3.00;;
4462;SDS011;2244;50.200;8.220;2024-02-16T01:01:52;22.57;;;2.80;;
4462;SDS011;2244;50.200;8.220;2024-02-16T01:04:20;26.17;;;3.07;;
4462;SDS011;2244;50.200;8.220;2024-02-16T01:06:47;23.30;;;3.10;;
4462;SDS011;2244;50.200;8.220;2024-02-16T01:09:15;24.20;;;2.90;;
4462;SDS011;2244;50.200;8.220;2024-02-16T01:11:42;26.57;;;2.80;;
4462;SDS011;2244;50.200;8.220;2024-02-16T01:14:10;23.80;;;3.30;;
4462;SDS011;2244;50.200;8.220;2024-02-16T01:16:37;24.70;;;2.90;;
4462;SDS011;2244;50.200;8.220;2024-02-16T01:19:05;24.10;;;3.20;;
4462;SDS011;2244;50.200;8.220;2024-02-16T01:21:34;25.30;;;2.90;;
4462;SDS011;2244;50.200;8.220;2024-02-16T01:24:01;24.87;;;3.10;;
4462;SDS011;2244;50.200;8.220;2024-02-16T01:26:30;22.80;;;3.00;;
4462;SDS011;2244;50.200;8.220;2024-02-16T01:28:58;23.87;;;2.80;;
4462;SDS011;2244;50.200;8.220;2024-02-16T01:31:25;24.93;;;3.00;;
4462;SDS011;2244;50.200;8.220;2024-02-16T01:33:59;28.43;;;3.60;;
4462;SDS011;2244;50.200;8.220;2024-02-16T01:36:27;24.70;;;3.30;;
4462;SDS011;2244;50.200;8.220;2024-02-16T01:38:55;24.00;;;3.10;;
4462;SDS011;2244;50.200;8.220;2024-02-16T01:41:22;26.80;;;3.13;;
4462;SDS011;2244;50.200;8.220;2024-02-16T01:43:55;25.13;;;2.83;;
4462;SDS011;2244;50.200;8.220;2024-02-16T01:46:30;29.10;;;3.60;;
4462;SDS011;2244;50.200;8.220;2024-02-16T01:48:58;24.30;;;3.20;;
4462;SDS011;2244;50.200;8.220;2024-02-16T01:51:25;25.60;;;3.13;;
4462;SDS011;2244;50.200;8.220;2024-02-16T01:53:54;23.70;;;2.87;;
4462;SDS011;2244;50.200;8.220;2024-02-16T01:56:22;25.10;;;3.17;;
4462;SDS011;2244;50.200;8.220;2024-02-16T01:58:49;24.87;;;3.50;;
4462;SDS011;2244;50.200;8.220;2024-02-16T02:01:17;25.57;;;3.10;;
4462;SDS011;2244;50.200;8.220;2024-02-16T02:03:44;23.87;;;3.50;;
4462;SDS011;2244;50.200;8.220;2024-02-16T02:06:12;26.03;;;3.10;;
4462;SDS011;2244;50.200;8.220;2024-02-16T02:08:39;26.60;;;3.23;;
4462;SDS011;2244;50.200;8.220;2024-02-16T02:11:07;31.57;;;3.70;;
4462;SDS011;2244;50.200;8.220;2024-02-16T02:13:34;26.60;;;3.90;;
4462;SDS011;2244;50.200;8.220;2024-02-16T02:16:02;27.40;;;3.13;;
4462;SDS011;2244;50.200;8.220;2024-02-16T02:18:30;28.40;;;3.73;;
4462;SDS011;2244;50.200;8.220;2024-02-16T02:20:57;24.33;;;3.50;;
4462;SDS011;2244;50.200;8.220;2024-02-16T02:23:25;26.00;;;3.80;;
4462;SDS011;2244;50.200;8.220;2024-02-16T02:25:52;25.93;;;3.30;;
4462;SDS011;2244;50.200;8.220;2024-02-16T02:28:20;24.77;;;3.37;;
4462;SDS011;2244;50.200;8.220;2024-02-16T02:30:49;23.87;;;3.20;;
4462;SDS011;2244;50.200;8.220;2024-02-16T02:33:16;23.30;;;2.70;;
4462;SDS011;2244;50.200;8.220;2024-02-16T02:35:44;30.93;;;4.03;;
4462;SDS011;2244;50.200;8.220;2024-02-16T02:38:12;24.90;;;3.37;;
4462;SDS011;2244;50.200;8.220;2024-02-16T02:40:40;24.20;;;2.60;;
4462;SDS011;2244;50.200;8.220;2024-02-16T02:43:08;23.80;;;2.77;;
4462;SDS011;2244;50.200;8.220;2024-02-16T02:45:35;24.23;;;3.23;;
4462;SDS011;2244;50.200;8.220;2024-02-16T02:48:02;23.60;;;2.40;;
4462;SDS011;2244;50.200;8.220;2024-02-16T02:50:30;26.53;;;3.67;;
4462;SDS011;2244;50.200;8.220;2024-02-16T02:52:58;24.97;;;3.50;;
4462;SDS011;2244;50.200;8.220;2024-02-16T02:55:25;25.30;;;3.53;;
4462;SDS011;2244;50.200;8.220;2024-02-16T02:57:53;24.13;;;3.17;;
4462;SDS011;2244;50.200;8.220;2024-02-16T03:00:20;27.77;;;3.50;;
4462;SDS011;2244;50.200;8.220;2024-02-16T03:02:48;28.63;;;3.07;;
4462;SDS011;2244;50.200;8.220;2024-02-16T03:05:15;24.30;;;3.13;;
4462;SDS011;2244;50.200;8.220;2024-02-16T03:07:43;25.50;;;2.87;;
4462;SDS011;2244;50.200;8.220;2024-02-16T03:10:11;25.00;;;3.07;;
4462;SDS011;2244;50.200;8.220;2024-02-16T03:12:38;24.57;;;3.33;;
4462;SDS011;2244;50.200;8.220;2024-02-16T03:15:06;26.37;;;3.33;;
4462;SDS011;2244;50.200;8.220;2024-02-16T03:17:33;24.80;;;3.33;;
4462;SDS011;2244;50.200;8.220;2024-02-16T03:20:01;24.40;;;3.20;;
4462;SDS011;2244;50.200;8.220;2024-02-16T03:22:29;24.30;;;3.13;;
4462;SDS011;2244;50.200;8.220;2024-02-16T03:24:57;24.57;;;2.70;;
4462;SDS011;2244;50.200;8.220;2024-02-16T03:27:24;25.10;;;3.33;;
4462;SDS011;2244;50.200;8.220;2024-02-16T03:29:51;26.43;;;3.13;;
4462;SDS011;2244;50.200;8.220;2024-02-16T03:32:19;24.27;;;2.87;;
4462;SDS011;2244;50.200;8.220;2024-02-16T03:34:47;24.43;;;2.77;;
4462;SDS011;2244;50.200;8.220;2024-02-16T03:37:17;24.20;;;2.87;;
4462;SDS011;2244;50.200;8.220;2024-02-16T03:39:45;24.10;;;2.87;;
4462;SDS011;2244;50.200;8.220;2024-02-16T03:42:12;25.63;;;3.17;;
4462;SDS011;2244;50.200;8.220;2024-02-16T03:44:40;27.70;;;3.40;;
4462;SDS011;2244;50.200;8.220;2024-02-16T03:47:07;24.17;;;3.13;;
4462;SDS011;2244;50.200;8.220;2024-02-16T03:49:35;24.00;;;2.70;;
4462;SDS011;2244;50.200;8.220;2024-02-16T03:52:09;23.30;;;2.63;;
4462;SDS011;2244;50.200;8.220;2024-02-16T03:54:36;24.17;;;2.70;;
4462;SDS011;2244;50.200;8.220;2024-02-16T03:57:04;23.70;;;2.80;;
4462;SDS011;2244;50.200;8.220;2024-02-16T03:59:33;27.73;;;3.47;;
4462;SDS011;2244;50.200;8.220;2024-02-16T04:02:00;24.63;;;3.87;;
4462;SDS011;2244;50.200;8.220;2024-02-16T04:04:28;25.27;;;3.57;;
4462;SDS011;2244;50.200;8.220;2024-02-16T04:06:56;24.33;;;3.97;;
4462;SDS011;2244;50.200;8.220;2024-02-16T04:09:23;27.30;;;3.60;;
4462;SDS011;2244;50.200;8.220;2024-02-16T04:11:51;25.53;;;3.57;;
4462;SDS011;2244;50.200;8.220;2024-02-16T04:14:18;23.40;;;3.50;;
4462;SDS011;2244;50.200;8.220;2024-02-16T04:16:46;28.60;;;3.70;;
4462;SDS011;2244;50.200;8.220;2024-02-16T04:19:13;26.10;;;3.93;;
4462;SDS011;2244;50.200;8.220;2024-02-16T04:21:41;27.67;;;3.73;;
4462;SDS011;2244;50.200;8.220;2024-02-16T04:24:08;28.77;;;4.77;;
4462;SDS011;2244;50.200;8.220;2024-02-16T04:26:36;27.57;;;4.47;;
4462;SDS011;2244;50.200;8.220;2024-02-16T04:29:03;28.27;;;4.73;;
4462;SDS011;2244;50.200;8.220;2024-02-16T04:31:33;24.50;;;3.97;;
4462;SDS011;2244;50.200;8.220;2024-02-16T04:34:01;24.40;;;3.90;;
4462;SDS011;2244;50.200;8.220;2024-02-16T04:36:29;27.43;;;4.40;;
4462;SDS011;2244;50.200;8.220;2024-02-16T04:38:56;26.83;;;4.10;;
4462;SDS011;2244;50.200;8.220;2024-02-16T04:41:23;26.47;;;3.83;;
4462;SDS011;2244;50.200;8.220;2024-02-16T04:43:51;26.17;;;4.50;;
4462;SDS011;2244;50.200;8.220;2024-02-16T04:46:19;27.17;;;4.63;;
4462;SDS011;2244;50.200;8.220;2024-02-16T04:48:47;28.83;;;4.20;;
4462;SDS011;2244;50.200;8.220;2024-02-16T04:51:15;27.00;;;4.13;;
4462;SDS011;2244;50.200;8.220;2024-02-16T04:53:42;25.07;;;3.77;;
4462;SDS011;2244;50.200;8.220;2024-02-16T04:56:10;29.20;;;4.77;;
4462;SDS011;2244;50.200;8.220;2024-02-16T04:58:41;26.50;;;4.50;;
4462;SDS011;2244;50.200;8.220;2024-02-16T05:01:08;25.90;;;4.13;;
4462;SDS011;2244;50.200;8.220;2024-02-16T05:03:36;26.10;;;3.80;;
4462;SDS011;2244;50.200;8.220;2024-02-16T05:06:05;28.03;;;4.20;;
4462;SDS011;2244;50.200;8.220;2024-02-16T05:08:33;28.87;;;4.37;;
4462;SDS011;2244;50.200;8.220;2024-02-16T05:11:01;24.53;;;3.57;;
4462;SDS011;2244;50.200;8.220;2024-02-16T05:13:29;24.37;;;3.90;;
4462;SDS011;2244;50.200;8.220;2024-02-16T05:15:56;24.50;;;3.53;;
4462;SDS011;2244;50.200;8.220;2024-02-16T05:18:23;22.70;;;3.20;;
4462;SDS011;2244;50.200;8.220;2024-02-16T05:20:51;22.97;;;2.90;;
4462;SDS011;2244;50.200;8.220;2024-02-16T05:23:19;25.53;;;3.57;;
4462;SDS011;2244;50.200;8.220;2024-02-16T05:25:46;25.77;;;3.20;;
4462;SDS011;2244;50.200;8.220;2024-02-16T05:28:14;24.80;;;3.40;;
4462;SDS011;2244;50.200;8.220;2024-02-16T05:30:41;23.13;;;3.20;;
4462;SDS011;2244;50.200;8.220;2024-02-16T05:33:09;25.90;;;3.70;;
4462;SDS011;2244;50.200;8.220;2024-02-16T05:35:36;24.60;;;3.40;;
4462;SDS011;2244;50.200;8.220;2024-02-16T05:38:06;24.77;;;3.37;;
4462;SDS011;2244;50.200;8.220;2024-02-16T05:40:41;25.63;;;3.50;;
4462;SDS011;2244;50.200;8.220;2024-02-16T05:43:13;25.67;;;3.63;;
4462;SDS011;2244;50.200;8.220;2024-02-16T05:45:41;29.00;;;3.40;;
4462;SDS011;2244;50.200;8.220;2024-02-16T05:48:08;27.67;;;3.70;;
4462;SDS011;2244;50.200;8.220;2024-02-16T05:50:37;23.80;;;3.43;;
4462;SDS011;2244;50.200;8.220;2024-02-16T05:53:05;24.20;;;3.43;;
4462;SDS011;2244;50.200;8.220;2024-02-16T05:55:32;26.77;;;3.50;;
4462;SDS011;2244;50.200;8.220;2024-02-16T05:58:00;25.33;;;2.77;;
4462;SDS011;2244;50.200;8.220;2024-02-16T06:00:28;23.17;;;2.87;;
4462;SDS011;2244;50.200;8.220;2024-02-16T06:02:55;24.40;;;3.17;;
4462;SDS011;2244;50.200;8.220;2024-02-16T06:05:23;24.60;;;3.50;;
4462;SDS011;2244;50.200;8.220;2024-02-16T06:07:50;24.23;;;3.20;;
4462;SDS011;2244;50.200;8.220;2024-02-16T06:10:18;26.30;;;3.83;;
4462;SDS011;2244;50.200;8.220;2024-02-16T06:12:45;25.13;;;3.80;;
4462;SDS011;2244;50.200;8.220;2024-02-16T06:15:13;23.10;;;3.07;;
4462;SDS011;2244;50.200;8.220;2024-02-16T06:17:41;24.33;;;3.13;;
4462;SDS011;2244;50.200;8.220;2024-02-16T06:20:09;25.07;;;3.53;;
4462;SDS011;2244;50.200;8.220;2024-02-16T06:22:37;25.33;;;3.10;;
4462;SDS011;2244;50.200;8.220;2024-02-16T06:25:05;24.53;;;3.27;;
4462;SDS011;2244;50.200;8.220;2024-02-16T06:27:32;22.90;;;2.90;;
4462;SDS011;2244;50.200;8.220;2024-02-16T06:30:00;24.27;;;3.20;;
4462;SDS011;2244;50.200;8.220;2024-02-16T06:32:27;23.57;;;2.83;;
4462;SDS011;2244;50.200;8.220;2024-02-16T06:34:55;23.67;;;3.20;;
4462;SDS011;2244;50.200;8.220;2024-02-16T06:37:23;24.73;;;3.13;;
4462;SDS011;2244;50.200;8.220;2024-02-16T06:39:51;24.20;;;3.10;;
4462;SDS011;2244;50.200;8.220;2024-02-16T06:42:18;23.03;;;3.13;;
4462;SDS011;2244;50.200;8.220;2024-02-16T06:44:46;23.97;;;3.10;;
4462;SDS011;2244;50.200;8.220;2024-02-16T06:47:13;25.10;;;3.47;;
4462;SDS011;2244;50.200;8.220;2024-02-16T06:49:41;24.60;;;2.90;;
4462;SDS011;2244;50.200;8.220;2024-02-16T06:52:08;24.67;;;3.20;;
4462;SDS011;2244;50.200;8.220;2024-02-16T06:54:36;27.70;;;3.00;;
4462;SDS011;2244;50.200;8.220;2024-02-16T06:57:04;24.77;;;3.00;;
4462;SDS011;2244;50.200;8.220;2024-02-16T06:59:33;25.50;;;3.37;;
4462;SDS011;2244;50.200;8.220;2024-02-16T07:02:01;25.10;;;3.00;;
4462;SDS011;2244;50.200;8.220;2024-02-16T07:04:28;25.97;;;3.10;;
4462;SDS011;2244;50.200;8.220;2024-02-16T07:06:56;26.23;;;2.90;;
4462;SDS011;2244;50.200;8.220;2024-02-16T07:09:23;23.67;;;3.03;;
4462;SDS011;2244;50.200;8.220;2024-02-16T07:11:51;23.37;;;2.70;;
4462;SDS011;2244;50.200;8.220;2024-02-16T07:14:20;22.90;;;3.13;;
4462;SDS011;2244;50.200;8.220;2024-02-16T07:16:53;23.23;;;2.80;;
4462;SDS011;2244;50.200;8.220;2024-02-16T07:19:21;25.87;;;3.50;;
4462;SDS011;2244;50.200;8.220;2024-02-16T07:21:49;28.93;;;3.37;;
4462;SDS011;2244;50.200;8.220;2024-02-16T07:24:16;23.60;;;3.30;;
4462;SDS011;2244;50.200;8.220;2024-02-16T07:26:45;23.30;;;2.53;;
4462;SDS011;2244;50.200;8.220;2024-02-16T07:29:14;25.13;;;3.40;;
4462;SDS011;2244;50.200;8.220;2024-02-16T07:31:43;26.67;;;3.70;;
4462;SDS011;2244;50.200;8.220;2024-02-16T07:34:11;26.17;;;3.23;;
4462;SDS011;2244;50.200;8.220;2024-02-16T07:36:39;25.90;;;3.40;;
4462;SDS011;2244;50.200;8.220;2024-02-16T07:39:06;24.53;;;3.40;;
4462;SDS011;2244;50.200;8.220;2024-02-16T07:41:34;24.83;;;3.60;;
4462;SDS011;2244;50.200;8.220;2024-02-16T07:44:01;26.70;;;3.63;;
4462;SDS011;2244;50.200;8.220;2024-02-16T07:46:32;25.00;;;3.43;;
4462;SDS011;2244;50.200;8.220;2024-02-16T07:49:01;25.20;;;4.20;;
4462;SDS011;2244;50.200;8.220;2024-02-16T07:51:30;25.33;;;3.57;;
4462;SDS011;2244;50.200;8.220;2024-02-16T07:53:58;25.87;;;4.20;;
4462;SDS011;2244;50.200;8.220;2024-02-16T07:56:26;27.70;;;3.80;;
4462;SDS011;2244;50.200;8.220;2024-02-16T07:58:54;25.50;;;4.00;;
4462;SDS011;2244;50.200;8.220;2024-02-16T08:01:21;28.03;;;4.53;;
4462;SDS011;2244;50.200;8.220;2024-02-16T08:03:49;28.83;;;3.73;;
4462;SDS011;2244;50.200;8.220;2024-02-16T08:06:17;24.83;;;3.70;;
4462;SDS011;2244;50.200;8.220;2024-02-16T08:08:47;24.40;;;3.50;;
4462;SDS011;2244;50.200;8.220;2024-02-16T08:11:15;25.30;;;3.27;;
4462;SDS011;2244;50.200;8.220;2024-02-16T08:13:42;26.20;;;3.40;;
4462;SDS011;2244;50.200;8.220;2024-02-16T08:16:11;24.70;;;3.37;;
4462;SDS011;2244;50.200;8.220;2024-02-16T08:18:38;24.90;;;3.30;;
4462;SDS011;2244;50.200;8.220;2024-02-16T08:21:06;24.70;;;3.23;;
4462;SDS011;2244;50.200;8.220;2024-02-16T08:23:34;25.90;;;3.47;;
4462;SDS011;2244;50.200;8.220;2024-02-16T08:26:01;25.90;;;3.87;;
4462;SDS011;2244;50.200;8.220;2024-02-16T08:28:29;24.60;;;3.10;;
4462;SDS011;2244;50.200;8.220;2024-02-16T08:30:56;25.20;;;3.43;;
4462;SDS011;2244;50.200;8.220;2024-02-16T08:33:24;25.50;;;3.67;;
4462;SDS011;2244;50.200;8.220;2024-02-16T08:35:51;25.40;;;3.87;;
4462;SDS011;2244;50.200;8.220;2024-02-16T08:38:19;24.60;;;3.13;;
4462;SDS011;2244;50.200;8.220;2024-02-16T08:40:46;33.00;;;4.50;;
4462;SDS011;2244;50.200;8.220;2024-02-16T08:43:15;24.03;;;3.47;;
4462;SDS011;2244;50.200;8.220;2024-02-16T08:45:43;25.80;;;3.73;;
4462;SDS011;2244;50.200;8.220;2024-02-16T08:48:11;23.80;;;3.30;;
4462;SDS011;2244;50.200;8.220;2024-02-16T08:50:38;23.57;;;2.90;;
4462;SDS011;2244;50.200;8.220;2024-02-16T08:53:06;26.33;;;3.60;;
4462;SDS011;2244;50.200;8.220;2024-02-16T08:55:35;26.00;;;3.87;;
4462;SDS011;2244;50.200;8.220;2024-02-16T08:58:02;24.30;;;3.43;;
4462;SDS011;2244;50.200;8.220;2024-02-16T09:00:30;25.20;;;3.20;;
4462;SDS011;2244;50.200;8.220;2024-02-16T09:02:57;25.10;;;3.87;;
4462;SDS011;2244;50.200;8.220;2024-02-16T09:05:25;24.07;;;3.70;;
4462;SDS011;2244;50.200;8.220;2024-02-16T09:07:53;23.50;;;3.03;;
4462;SDS011;2244;50.200;8.220;2024-02-16T09:10:20;23.13;;;3.33;;
4462;SDS011;2244;50.200;8.220;2024-02-16T09:12:48;23.50;;;3.00;;
4462;SDS011;2244;50.200;8.220;2024-02-16T09:15:18;24.43;;;3.47;;
4462;SDS011;2244;50.200;8.220;2024-02-16T09:17:45;27.33;;;3.30;;
4462;SDS011;2244;50.200;8.220;2024-02-16T09:20:13;23.87;;;3.17;;
4462;SDS011;2244;50.200;8.220;2024-02-16T09:22:41;25.83;;;3.57;;
4462;SDS011;2244;50.200;8.220;2024-02-16T09:25:10;25.83;;;3.33;;
4462;SDS011;2244;50.200;8.220;2024-02-16T09:27:38;26.67;;;3.70;;
4462;SDS011;2244;50.200;8.220;2024-02-16T09:30:07;24.20;;;3.00;;
4462;SDS011;2244;50.200;8.220;2024-02-16T09:32:39;25.67;;;3.00;;
4462;SDS011;2244;50.200;8.220;2024-02-16T09:35:11;27.23;;;3.53;;
4462;SDS011;2244;50.200;8.220;2024-02-16T09:37:40;25.20;;;2.90;;
4462;SDS011;2244;50.200;8.220;2024-02-16T09:40:07;24.07;;;3.30;;
4462;SDS011;2244;50.200;8.220;2024-02-16T09:42:37;22.70;;;2.93;;
4462;SDS011;2244;50.200;8.220;2024-02-16T09:45:06;24.27;;;3.20;;
4462;SDS011;2244;50.200;8.220;2024-02-16T09:47:33;24.27;;;3.00;;
4462;SDS011;2244;50.200;8.220;2024-02-16T09:50:04;23.63;;;3.17;;
4462;SDS011;2244;50.200;8.220;2024-02-16T09:52:32;22.87;;;2.60;;
4462;SDS011;2244;50.200;8.220;2024-02-16T09:55:00;24.20;;;3.03;;
4462;SDS011;2244;50.200;8.220;2024-02-16T09:57:28;25.77;;;3.23;;
4462;SDS011;2244;50.200;8.220;2024-02-16T09:59:55;25.43;;;3.40;;
4462;SDS011;2244;50.200;8.220;2024-02-16T10:02:26;27.67;;;3.50;;
4462;SDS011;2244;50.200;8.220;2024-02-16T10:04:54;23.93;;;3.00;;
4462;SDS011;2244;50.200;8.220;2024-02-16T10:07:32;24.57;;;3.17;;
4462;SDS011;2244;50.200;8.220;2024-02-16T10:10:00;24.10;;;3.20;;
4462;SDS011;2244;50.200;8.220;2024-02-16T10:12:27;23.57;;;3.20;;
4462;SDS011;2244;50.200;8.220;2024-02-16T10:14:55;24.93;;;3.27;;
4462;SDS011;2244;50.200;8.220;2024-02-16T10:17:24;24.80;;;3.30;;
4462;SDS011;2244;50.200;8.220;2024-02-16T10:19:56;25.60;;;3.23;;
4462;SDS011;2244;50.200;8.220;2024-02-16T10:22:24;25.97;;;2.90;;
4462;SDS011;2244;50.200;8.220;2024-02-16T10:24:52;24.57;;;2.60;;
4462;SDS011;2244;50.200;8.220;2024-02-16T10:27:19;23.77;;;2.97;;
4462;SDS011;2244;50.200;8.220;2024-02-16T10:29:47;27.27;;;3.63;;
4462;SDS011;2244;50.200;8.220;2024-02-16T10:32:16;27.33;;;3.10;;
4462;SDS011;2244;50.200;8.220;2024-02-16T10:34:44;24.07;;;2.93;;
4462;SDS011;2244;50.200;8.220;2024-02-16T10:37:13;25.30;;;2.93;;
4462;SDS011;2244;50.200;8.220;2024-02-16T10:39:41;28.80;;;3.10;;
4462;SDS011;2244;50.200;8.220;2024-02-16T10:42:08;31.47;;;3.37;;
4462;SDS011;2244;50.200;8.220;2024-02-16T10:44:37;24.97;;;3.10;;
4462;SDS011;2244;50.200;8.220;2024-02-16T10:47:06;25.60;;;2.83;;
4462;SDS011;2244;50.200;8.220;2024-02-16T10:49:34;27.40;;;3.40;;
4462;SDS011;2244;50.200;8.220;2024-02-16T10:52:04;25.63;;;3.20;;
4462;SDS011;2244;50.200;8.220;2024-02-16T10:54:32;28.57;;;3.00;;
4462;SDS011;2244;50.200;8.220;2024-02-16T10:57:00;23.87;;;3.10;;
4462;SDS011;2244;50.200;8.220;2024-02-16T10:59:28;25.70;;;3.50;;
4462;SDS011;2244;50.200;8.220;2024-02-16T11:02:00;24.40;;;3.07;;
4462;SDS011;2244;50.200;8.220;2024-02-16T11:04:37;28.43;;;3.00;;
4462;SDS011;2244;50.200;8.220;2024-02-16T11:07:10;25.83;;;3.13;;
4462;SDS011;2244;50.200;8.220;2024-02-16T11:09:39;24.70;;;3.00;;
4462;SDS011;2244;50.200;8.220;2024-02-16T11:12:13;24.43;;;2.90;;
4462;SDS011;2244;50.200;8.220;2024-02-16T11:14:42;24.67;;;3.60;;
4462;SDS011;2244;50.200;8.220;2024-02-16T11:17:10;26.20;;;3.13;;
4462;SDS011;2244;50.200;8.220;2024-02-16T11:19:41;24.07;;;3.20;;
4462;SDS011;2244;50.200;8.220;2024-02-16T11:22:09;25.20;;;3.57;;
4462;SDS011;2244;50.200;8.220;2024-02-16T11:24:48;25.83;;;3.47;;
4462;SDS011;2244;50.200;8.220;2024-02-16T11:27:08;26.60;;;3.83;;
4462;SDS011;2244;50.200;8.220;2024-02-16T11:29:36;24.63;;;2.90;;
4462;SDS011;2244;50.200;8.220;2024-02-16T11:32:22;27.60;;;3.73;;
4462;SDS011;2244;50.200;8.220;2024-02-16T11:34:47;26.90;;;3.90;;
4462;SDS011;2244;50.200;8.220;2024-02-16T11:37:15;24.90;;;4.03;;
4462;SDS011;2244;50.200;8.220;2024-02-16T11:39:43;26.20;;;3.90;;
4462;SDS011;2244;50.200;8.220;2024-02-16T11:42:13;26.10;;;4.13;;
4462;SDS011;2244;50.200;8.220;2024-02-16T11:44:50;23.70;;;3.60;;
4462;SDS011;2244;50.200;8.220;2024-02-16T11:47:11;26.40;;;3.67;;
4462;SDS011;2244;50.200;8.220;2024-02-16T11:49:43;24.47;;;3.20;;
4462;SDS011;2244;50.200;8.220;2024-02-16T11:52:11;27.77;;;3.60;;
4462;SDS011;2244;50.200;8.220;2024-02-16T11:54:38;24.30;;;3.67;;
4462;SDS011;2244;50.200;8.220;2024-02-16T11:57:06;27.57;;;3.97;;
4462;SDS011;2244;50.200;8.220;2024-02-16T11:59:33;27.23;;;4.20;;
4462;SDS011;2244;50.200;8.220;2024-02-16T12:02:01;28.97;;;3.90;;
4462;SDS011;2244;50.200;8.220;2024-02-16T12:04:29;25.13;;;3.43;;
4462;SDS011;2244;50.200;8.220;2024-02-16T12:07:00;25.50;;;3.90;;
4462;SDS011;2244;50.200;8.220;2024-02-16T12:09:30;28.20;;;4.20;;
4462;SDS011;2244;50.200;8.220;2024-02-16T12:11:59;30.10;;;4.27;;
4462;SDS011;2244;50.200;8.220;2024-02-16T12:14:26;28.43;;;4.03;;
4462;SDS011;2244;50.200;8.220;2024-02-16T12:16:57;24.90;;;4.00;;
4462;SDS011;2244;50.200;8.220;2024-02-16T12:19:25;25.87;;;3.57;;
4462;SDS011;2244;50.200;8.220;2024-02-16T12:21:53;25.80;;;3.60;;
4462;SDS011;2244;50.200;8.220;2024-02-16T12:24:21;26.07;;;4.00;;
4462;SDS011;2244;50.200;8.220;2024-02-16T12:26:49;25.47;;;4.20;;
4462;SDS011;2244;50.200;8.220;2024-02-16T12:29:16;33.60;;;4.40;;
4462;SDS011;2244;50.200;8.220;2024-02-16T12:31:45;25.30;;;4.17;;
4462;SDS011;2244;50.200;8.220;2024-02-16T12:34:14;26.07;;;4.23;;
4462;SDS011;2244;50.200;8.220;2024-02-16T12:36:42;28.80;;;4.23;;
4462;SDS011;2244;50.200;8.220;2024-02-16T12:39:11;27.73;;;4.00;;
4462;SDS011;2244;50.200;8.220;2024-02-16T12:41:40;25.53;;;3.63;;
4462;SDS011;2244;50.200;8.220;2024-02-16T12:44:09;26.97;;;3.90;;
4462;SDS011;2244;50.200;8.220;2024-02-16T12:46:37;25.13;;;3.00;;
4462;SDS011;2244;50.200;8.220;2024-02-16T12:49:06;27.77;;;3.67;;
4462;SDS011;2244;50.200;8.220;2024-02-16T12:51:34;28.13;;;3.47;;
4462;SDS011;2244;50.200;8.220;2024-02-16T12:54:02;26.70;;;3.73;;
4462;SDS011;2244;50.200;8.220;2024-02-16T12:56:31;28.37;;;4.40;;
4462;SDS011;2244;50.200;8.220;2024-02-16T12:58:58;25.60;;;3.60;;
4462;SDS011;2244;50.200;8.220;2024-02-16T13:01:28;27.17;;;3.80;;
4462;SDS011;2244;50.200;8.220;2024-02-16T13:03:55;29.20;;;3.90;;
4462;SDS011;2244;50.200;8.220;2024-02-16T13:06:23;29.20;;;4.30;;
4462;SDS011;2244;50.200;8.220;2024-02-16T13:08:52;30.43;;;4.83;;
4462;SDS011;2244;50.200;8.220;2024-02-16T13:11:26;29.27;;;4.17;;
4462;SDS011;2244;50.200;8.220;2024-02-16T13:13:53;26.40;;;3.73;;
4462;SDS011;2244;50.200;8.220;2024-02-16T13:16:21;29.83;;;3.87;;
4462;SDS011;2244;50.200;8.220;2024-02-16T13:18:48;27.27;;;3.90;;
4462;SDS011;2244;50.200;8.220;2024-02-16T13:21:16;26.27;;;3.70;;
4462;SDS011;2244;50.200;8.220;2024-02-16T13:23:44;26.20;;;3.90;;
4462;SDS011;2244;50.200;8.220;2024-02-16T13:26:11;27.83;;;4.03;;
4462;SDS011;2244;50.200;8.220;2024-02-16T13:28:39;30.80;;;4.20;;
4462;SDS011;2244;50.200;8.220;2024-02-16T13:31:06;26.60;;;4.73;;
4462;SDS011;2244;50.200;8.220;2024-02-16T13:33:36;27.23;;;4.83;;
4462;SDS011;2244;50.200;8.220;2024-02-16T13:36:03;28.57;;;4.57;;
4462;SDS011;2244;50.200;8.220;2024-02-16T13:38:32;27.27;;;4.73;;
4462;SDS011;2244;50.200;8.220;2024-02-16T13:40:59;33.57;;;4.77;;
4462;SDS011;2244;50.200;8.220;2024-02-16T13:43:27;29.90;;;4.43;;
4462;SDS011;2244;50.200;8.220;2024-02-16T13:45:54;28.67;;;4.57;;
4462;SDS011;2244;50.200;8.220;2024-02-16T13:48:23;29.17;;;4.00;;
4462;SDS011;2244;50.200;8.220;2024-02-16T13:50:53;29.60;;;4.77;;
4462;SDS011;2244;50.200;8.220;2024-02-16T13:53:22;30.60;;;4.20;;
4462;SDS011;2244;50.200;8.220;2024-02-16T13:55:50;26.03;;;4.00;;
4462;SDS011;2244;50.200;8.220;2024-02-16T13:58:17;25.57;;;4.13;;
4462;SDS011;2244;50.200;8.220;2024-02-16T14:00:45;28.57;;;4.17;;
4462;SDS011;2244;50.200;8.220;2024-02-16T14:03:13;27.13;;;4.03;;
4462;SDS011;2244;50.200;8.220;2024-02-16T14:05:42;28.63;;;4.03;;
4462;SDS011;2244;50.200;8.220;2024-02-16T14:08:11;29.20;;;4.00;;
4462;SDS011;2244;50.200;8.220;2024-02-16T14:10:39;31.70;;;3.80;;
4462;SDS011;2244;50.200;8.220;2024-02-16T14:13:06;26.07;;;4.20;;
4462;SDS011;2244;50.200;8.220;2024-02-16T14:15:34;27.90;;;3.73;;
4462;SDS011;2244;50.200;8.220;2024-02-16T14:18:01;31.17;;;4.30;;
4462;SDS011;2244;50.200;8.220;2024-02-16T14:20:31;25.53;;;4.00;;
4462;SDS011;2244;50.200;8.220;2024-02-16T14:22:59;24.43;;;3.80;;
4462;SDS011;2244;50.200;8.220;2024-02-16T14:25:28;28.90;;;3.53;;
4462;SDS011;2244;50.200;8.220;2024-02-16T14:27:56;27.93;;;3.50;;
4462;SDS011;2244;50.200;8.220;2024-02-16T14:30:24;26.77;;;4.30;;
4462;SDS011;2244;50.200;8.220;2024-02-16T14:32:52;29.30;;;4.10;;
4462;SDS011;2244;50.200;8.220;2024-02-16T14:35:21;27.90;;;3.80;;
4462;SDS011;2244;50.200;8.220;2024-02-16T14:37:48;25.30;;;3.80;;
4462;SDS011;2244;50.200;8.220;2024-02-16T14:40:16;29.20;;;3.67;;
4462;SDS011;2244;50.200;8.220;2024-02-16T14:42:44;26.23;;;3.57;;
4462;SDS011;2244;50.200;8.220;2024-02-16T14:45:12;28.03;;;3.93;;
4462;SDS011;2244;50.200;8.220;2024-02-16T14:47:41;26.50;;;4.17;;
4462;SDS011;2244;50.200;8.220;2024-02-16T14:50:08;25.27;;;3.50;;
4462;SDS011;2244;50.200;8.220;2024-02-16T14:52:36;27.60;;;3.63;;
4462;SDS011;2244;50.200;8.220;2024-02-16T14:55:04;25.73;;;3.57;;
4462;SDS011;2244;50.200;8.220;2024-02-16T14:57:31;24.93;;;3.20;;
4462;SDS011;2244;50.200;8.220;2024-02-16T15:00:00;25.10;;;3.70;;
4462;SDS011;2244;50.200;8.220;2024-02-16T15:02:28;27.93;;;3.60;;
4462;SDS011;2244;50.200;8.220;2024-02-16T15:04:55;26.33;;;3.27;;